首页
METAR-TAF:

METAR-TAF

机场 :

多維爾, 法国

纬度: 49-21-55N, 经度: 000-09-16E, 海拔: 146米

当前天气观测

该预报发布于32分钟前的21:00 UTC
风速10节,风向西转西南,在南转西南西之间变化
温度 11°C
湿度 82%
气压 1006 hPa
能见度10公里或以上
阴天层高于1500英尺

METAR: LFRG 062100Z AUTO 24010KT 200V260 9999 OVC015 11/08 Q1006

时间: 23:32 (21:32 UTC)

预报

该预报发布于7小时和32分钟前的14:00 UTC
预报有效从06日的 15点(UTC)到 06日的 24点(UTC)
风速15节,风向西转西北,有时为30节阵风
能见度10公里或以上
多云层高于4000英尺
成为
从 06日的 18点(UTC)到 06日的 20点(UTC)
风速11节,风向西
短暂存在
从 06日的 19点(UTC)到 06日的 24点(UTC)
能見度: 4000
多云层高于2000英尺, 塔状积云.
小阵雨

TAF: LFRG 061400Z 0615/0624 29015G30KT 9999 BKN040 BECMG 0618/0620 26011KT TEMPO 0619/0624 4000 -SHRA BKN020TCU

超过4000个机场的气象观测和天气预报(METAR&TAF报告)。

可查询的气象台以黄色和红色小点在地图上表示。

将鼠标移到小点上方,可查看气象台名称。

然后点击查看天气观测和预报。

如需切换地图:点击带黑十字的绿色按钮放大地图;点击带横线的绿色按钮缩小地图;或者点击绿色箭头查看邻近地区的地图。


METAR-TAF: